Detall de PIREP

Printer-friendly versionPDF version

[2009/07/09 20:18:00]
Flight IATA:CT2102
Pilot Number:041
Company ICAO:CAT
Aircraft Type:AT72/F
PAX:66
Departing Airport: LEVC
Destination Airport: LEBZ
Alternate Airport:LEZL
Online: VATSIM
Route:CENTA2B A33 PRADO A33 CJN G7 PALIO G7 VISON G7 GOTOR G7 TLD G7 NAPTA G7 CCS1A
Flight Level:FL190
No Slew and time accel
No pause
Crash detect
Detect pilot in Cockpit between each 30 and 45 minutes
20:18 Zero fuel Weight: 42945 Lbs, Fuel Weight: 5599 Lbs
20:18 VATSIM:LEVC 091930Z 05010KT 9999 FEW020 BKN026 24/20 Q1016 NOSIG
20:18 VATSIM:LEBZ 091800Z 30009KT 270V330 CAVOK 33/08 Q1015
20:19 VOICE CATALONIAN
20:33 Parking Brakes off
20:40 Take-off
20:40 Take off Weight: 48409 Lbs
20:40 Wind: 073º @ 006 Knots Heading: 114º
20:40 POS N39º 29´ 16´´ W000º 28´ 41´´
20:40 Gear Up: 141 Knots
20:40 Flaps:1 at 141 Knots
20:40 Flaps:0 at 157 Knots
20:55 Wind:262º@013 Knots Heading:
297º Ground Speed: 234 Knots Altitude 13536 ft
21:01 TOC
21:01 Fuel Weight: 4716 Lb
21:10 Wind:283º@020 Knots Heading: 297º Ground Speed: 269 Knots Altitude 19051 ft
21:25 Wind:283º@020 Knots Heading: 255º Ground Speed: 270 Knots Altitude 19071 ft
21:37 TOD
21:37 Fuel Weight: 3532 Lb
21:40 Wind:276º@022 Knots Heading: 256º Ground Speed: 294 Knots Altitude 16860 ft
21:55 Wind:337º@007 Knots Heading: 166º Ground Speed: 243 Knots Altitude 4498 ft
22:08 Flaps:1 at 183 Knots
22:09 Gear Down: 160 Knots
22:09 Flaps:2 at 132 Knots
22:10 Wind:290º@008 Knots Heading: 305º Ground Speed: 116 Knots Altitude 2168 ft
22:12 TouchDown:Rate -74 ft/min Speed: 97 Knots
22:12 VATSIM:LEBZ 091800Z 30009KT 270V330 CAVOK 33/08 Q1015
22:12 Land
22:12 Wind:305º@008 Knots
22:12 Heading: 304º
22:12 Flight Duration: 01:32
22:12 Landing Weight: 45742 Lbs
22:12 POS N38º 53´ 28´´ W006º 49
´ 16´´
22:15 Parking brakes on
22:15 Block to Block Duration: 01:42
22:15 Final Fuel: 2779 Lbls
22:15 Spent Fuel: 2819 Lbls
22:15 Flight Length: 384 NM
22:15 TOD Land Length: 142 NM

Exportar CSV

Powered by Drupal - Modified by Danger4k